sensor_id;sensor_type;location;lat;lon;timestamp;temperature;humidity
5605;DHT22;9297;47.258;11.362;2023-12-22T00:00:43;8.10;99.50
5605;DHT22;9297;47.258;11.362;2023-12-22T00:03:09;8.10;96.00
5605;DHT22;9297;47.258;11.362;2023-12-22T00:05:36;8.10;95.20
5605;DHT22;9297;47.258;11.362;2023-12-22T00:08:04;8.10;96.90
5605;DHT22;9297;47.258;11.362;2023-12-22T00:10:31;8.10;96.20
5605;DHT22;9297;47.258;11.362;2023-12-22T00:12:58;8.10;96.70
5605;DHT22;9297;47.258;11.362;2023-12-22T00:15:25;8.00;99.90
5605;DHT22;9297;47.258;11.362;2023-12-22T00:17:53;8.00;99.90
5605;DHT22;9297;47.258;11.362;2023-12-22T00:20:20;7.90;99.90
5605;DHT22;9297;47.258;11.362;2023-12-22T00:22:47;8.00;99.90
5605;DHT22;9297;47.258;11.362;2023-12-22T00:25:14;7.90;99.90
5605;DHT22;9297;47.258;11.362;2023-12-22T00:27:41;7.90;99.90
5605;DHT22;9297;47.258;11.362;2023-12-22T00:30:10;7.90;99.90
5605;DHT22;9297;47.258;11.362;2023-12-22T00:32:37;7.90;99.70
5605;DHT22;9297;47.258;11.362;2023-12-22T00:35:06;7.90;99.90
5605;DHT22;9297;47.258;11.362;2023-12-22T00:37:33;7.90;99.90
5605;DHT22;9297;47.258;11.362;2023-12-22T00:40:00;7.90;98.20
5605;DHT22;9297;47.258;11.362;2023-12-22T00:42:27;8.00;96.80
5605;DHT22;9297;47.258;11.362;2023-12-22T00:44:54;8.00;94.00
5605;DHT22;9297;47.258;11.362;2023-12-22T00:47:21;8.00;99.70
5605;DHT22;9297;47.258;11.362;2023-12-22T00:49:48;8.00;97.90
5605;DHT22;9297;47.258;11.362;2023-12-22T00:52:17;7.90;96.10
5605;DHT22;9297;47.258;11.362;2023-12-22T00:54:44;8.00;94.50
5605;DHT22;9297;47.258;11.362;2023-12-22T00:57:10;8.00;94.00
5605;DHT22;9297;47.258;11.362;2023-12-22T00:59:37;8.00;92.70
5605;DHT22;9297;47.258;11.362;2023-12-22T01:02:04;8.30;86.50
5605;DHT22;9297;47.258;11.362;2023-12-22T01:04:31;8.40;83.00
5605;DHT22;9297;47.258;11.362;2023-12-22T01:06:58;8.30;90.60
5605;DHT22;9297;47.258;11.362;2023-12-22T01:09:27;8.20;95.10
5605;DHT22;9297;47.258;11.362;2023-12-22T01:11:54;8.20;93.60
5605;DHT22;9297;47.258;11.362;2023-12-22T01:14:20;8.20;92.40
5605;DHT22;9297;47.258;11.362;2023-12-22T01:16:47;8.20;93.80
5605;DHT22;9297;47.258;11.362;2023-12-22T01:19:15;8.20;94.70
5605;DHT22;9297;47.258;11.362;2023-12-22T01:21:42;8.20;81.20
5605;DHT22;9297;47.258;11.362;2023-12-22T01:24:09;8.30;85.20
5605;DHT22;9297;47.258;11.362;2023-12-22T01:26:37;8.20;90.30
5605;DHT22;9297;47.258;11.362;2023-12-22T01:29:04;8.20;87.00
5605;DHT22;9297;47.258;11.362;2023-12-22T01:31:31;8.20;84.10
5605;DHT22;9297;47.258;11.362;2023-12-22T01:33:58;8.20;89.30
5605;DHT22;9297;47.258;11.362;2023-12-22T01:36:25;8.20;88.60
5605;DHT22;9297;47.258;11.362;2023-12-22T01:38:52;8.20;86.70
5605;DHT22;9297;47.258;11.362;2023-12-22T01:41:19;8.30;81.50
5605;DHT22;9297;47.258;11.362;2023-12-22T01:43:47;8.30;83.20
5605;DHT22;9297;47.258;11.362;2023-12-22T01:46:14;8.20;89.10
5605;DHT22;9297;47.258;11.362;2023-12-22T01:48:41;8.20;88.00
5605;DHT22;9297;47.258;11.362;2023-12-22T01:51:09;8.20;89.00
5605;DHT22;9297;47.258;11.362;2023-12-22T01:53:36;8.20;85.90
5605;DHT22;9297;47.258;11.362;2023-12-22T01:56:06;8.10;86.40
5605;DHT22;9297;47.258;11.362;2023-12-22T01:58:35;8.10;89.00
5605;DHT22;9297;47.258;11.362;2023-12-22T02:01:04;8.00;91.20
5605;DHT22;9297;47.258;11.362;2023-12-22T02:03:31;8.00;89.90
5605;DHT22;9297;47.258;11.362;2023-12-22T02:05:58;8.00;88.40
5605;DHT22;9297;47.258;11.362;2023-12-22T02:08:26;8.00;90.60
5605;DHT22;9297;47.258;11.362;2023-12-22T02:10:54;7.90;92.30
5605;DHT22;9297;47.258;11.362;2023-12-22T02:13:21;7.80;92.50
5605;DHT22;9297;47.258;11.362;2023-12-22T02:15:54;7.80;90.30
5605;DHT22;9297;47.258;11.362;2023-12-22T02:18:26;7.70;96.20
5605;DHT22;9297;47.258;11.362;2023-12-22T02:20:57;7.70;94.10
5605;DHT22;9297;47.258;11.362;2023-12-22T02:23:25;7.70;93.00
5605;DHT22;9297;47.258;11.362;2023-12-22T02:25:56;7.70;91.30
5605;DHT22;9297;47.258;11.362;2023-12-22T02:28:24;8.20;81.70
5605;DHT22;9297;47.258;11.362;2023-12-22T02:30:56;8.00;85.60
5605;DHT22;9297;47.258;11.362;2023-12-22T02:33:27;7.90;88.50
5605;DHT22;9297;47.258;11.362;2023-12-22T02:36:00;7.90;89.00
5605;DHT22;9297;47.258;11.362;2023-12-22T02:38:31;7.90;88.60
5605;DHT22;9297;47.258;11.362;2023-12-22T02:41:00;8.00;89.10
5605;DHT22;9297;47.258;11.362;2023-12-22T02:43:27;8.20;75.40
5605;DHT22;9297;47.258;11.362;2023-12-22T02:45:55;8.30;75.20
5605;DHT22;9297;47.258;11.362;2023-12-22T02:48:22;8.50;70.00
5605;DHT22;9297;47.258;11.362;2023-12-22T02:50:50;8.50;73.10
5605;DHT22;9297;47.258;11.362;2023-12-22T02:53:17;8.70;64.70
5605;DHT22;9297;47.258;11.362;2023-12-22T02:55:45;8.80;64.50
5605;DHT22;9297;47.258;11.362;2023-12-22T02:58:12;8.80;63.40
5605;DHT22;9297;47.258;11.362;2023-12-22T03:00:39;8.80;63.60
5605;DHT22;9297;47.258;11.362;2023-12-22T03:03:06;8.80;63.10
5605;DHT22;9297;47.258;11.362;2023-12-22T03:05:33;8.80;63.90
5605;DHT22;9297;47.258;11.362;2023-12-22T03:08:00;8.80;65.20
5605;DHT22;9297;47.258;11.362;2023-12-22T03:10:29;8.80;63.90
5605;DHT22;9297;47.258;11.362;2023-12-22T03:12:57;8.60;67.70
5605;DHT22;9297;47.258;11.362;2023-12-22T03:15:24;8.60;66.10
5605;DHT22;9297;47.258;11.362;2023-12-22T03:17:51;8.60;67.30
5605;DHT22;9297;47.258;11.362;2023-12-22T03:20:18;8.60;66.60
5605;DHT22;9297;47.258;11.362;2023-12-22T03:22:45;8.50;67.40
5605;DHT22;9297;47.258;11.362;2023-12-22T03:25:12;8.50;66.90
5605;DHT22;9297;47.258;11.362;2023-12-22T03:27:39;8.60;65.80
5605;DHT22;9297;47.258;11.362;2023-12-22T03:30:09;8.50;67.40
5605;DHT22;9297;47.258;11.362;2023-12-22T03:32:36;8.40;68.30
5605;DHT22;9297;47.258;11.362;2023-12-22T03:35:04;8.30;69.60
5605;DHT22;9297;47.258;11.362;2023-12-22T03:37:31;8.00;74.30
5605;DHT22;9297;47.258;11.362;2023-12-22T03:39:58;7.90;76.90
5605;DHT22;9297;47.258;11.362;2023-12-22T03:42:25;7.80;81.40
5605;DHT22;9297;47.258;11.362;2023-12-22T03:44:52;7.70;79.50
5605;DHT22;9297;47.258;11.362;2023-12-22T03:47:20;7.60;81.50
5605;DHT22;9297;47.258;11.362;2023-12-22T03:49:47;7.60;85.50
5605;DHT22;9297;47.258;11.362;2023-12-22T03:52:14;7.60;83.80
5605;DHT22;9297;47.258;11.362;2023-12-22T03:54:41;7.40;85.80
5605;DHT22;9297;47.258;11.362;2023-12-22T03:57:07;7.30;87.10
5605;DHT22;9297;47.258;11.362;2023-12-22T03:59:34;7.40;85.40
5605;DHT22;9297;47.258;11.362;2023-12-22T04:02:01;7.30;86.70
5605;DHT22;9297;47.258;11.362;2023-12-22T04:04:30;7.30;86.60
5605;DHT22;9297;47.258;11.362;2023-12-22T04:06:57;7.50;78.60
5605;DHT22;9297;47.258;11.362;2023-12-22T04:09:24;7.60;80.60
5605;DHT22;9297;47.258;11.362;2023-12-22T04:11:51;7.40;88.40
5605;DHT22;9297;47.258;11.362;2023-12-22T04:14:18;7.30;86.90
5605;DHT22;9297;47.258;11.362;2023-12-22T04:16:45;7.30;86.10
5605;DHT22;9297;47.258;11.362;2023-12-22T04:19:12;7.40;84.90
5605;DHT22;9297;47.258;11.362;2023-12-22T04:21:40;7.30;86.30
5605;DHT22;9297;47.258;11.362;2023-12-22T04:24:07;7.30;88.50
5605;DHT22;9297;47.258;11.362;2023-12-22T04:26:34;7.30;87.80
5605;DHT22;9297;47.258;11.362;2023-12-22T04:29:01;7.30;87.40
5605;DHT22;9297;47.258;11.362;2023-12-22T04:31:28;7.20;88.30
5605;DHT22;9297;47.258;11.362;2023-12-22T04:33:55;7.10;88.70
5605;DHT22;9297;47.258;11.362;2023-12-22T04:36:22;7.00;91.60
5605;DHT22;9297;47.258;11.362;2023-12-22T04:38:51;6.90;90.80
5605;DHT22;9297;47.258;11.362;2023-12-22T04:41:18;6.90;89.80
5605;DHT22;9297;47.258;11.362;2023-12-22T04:43:45;6.80;93.10
5605;DHT22;9297;47.258;11.362;2023-12-22T04:46:12;7.00;86.60
5605;DHT22;9297;47.258;11.362;2023-12-22T04:48:39;7.10;85.70
5605;DHT22;9297;47.258;11.362;2023-12-22T04:51:06;7.20;80.10
5605;DHT22;9297;47.258;11.362;2023-12-22T04:53:33;7.20;86.60
5605;DHT22;9297;47.258;11.362;2023-12-22T04:56:01;7.10;86.80
5605;DHT22;9297;47.258;11.362;2023-12-22T04:58:28;7.20;84.10
5605;DHT22;9297;47.258;11.362;2023-12-22T05:00:55;7.30;84.60
5605;DHT22;9297;47.258;11.362;2023-12-22T05:03:22;7.10;87.30
5605;DHT22;9297;47.258;11.362;2023-12-22T05:05:49;7.10;85.70
5605;DHT22;9297;47.258;11.362;2023-12-22T05:08:16;7.10;89.40
5605;DHT22;9297;47.258;11.362;2023-12-22T05:10:43;7.10;84.40
5605;DHT22;9297;47.258;11.362;2023-12-22T05:13:12;7.20;86.40
5605;DHT22;9297;47.258;11.362;2023-12-22T05:15:39;7.10;85.60
5605;DHT22;9297;47.258;11.362;2023-12-22T05:18:06;7.20;85.80
5605;DHT22;9297;47.258;11.362;2023-12-22T05:20:33;7.30;81.70
5605;DHT22;9297;47.258;11.362;2023-12-22T05:23:00;7.40;78.60
5605;DHT22;9297;47.258;11.362;2023-12-22T05:25:27;7.30;83.20
5605;DHT22;9297;47.258;11.362;2023-12-22T05:27:54;7.30;82.40
5605;DHT22;9297;47.258;11.362;2023-12-22T05:30:22;7.20;85.50
5605;DHT22;9297;47.258;11.362;2023-12-22T05:32:49;7.20;84.70
5605;DHT22;9297;47.258;11.362;2023-12-22T05:35:16;7.20;79.90
5605;DHT22;9297;47.258;11.362;2023-12-22T05:37:43;7.30;79.00
5605;DHT22;9297;47.258;11.362;2023-12-22T05:40:11;7.50;73.10
5605;DHT22;9297;47.258;11.362;2023-12-22T05:42:38;7.40;76.60
5605;DHT22;9297;47.258;11.362;2023-12-22T05:45:08;7.20;80.30
5605;DHT22;9297;47.258;11.362;2023-12-22T05:47:37;7.40;75.40
5605;DHT22;9297;47.258;11.362;2023-12-22T05:50:04;7.30;79.40
5605;DHT22;9297;47.258;11.362;2023-12-22T05:52:32;7.20;80.20
5605;DHT22;9297;47.258;11.362;2023-12-22T05:54:59;7.20;81.00
5605;DHT22;9297;47.258;11.362;2023-12-22T05:57:26;7.20;76.10
5605;DHT22;9297;47.258;11.362;2023-12-22T05:59:53;7.20;78.00
5605;DHT22;9297;47.258;11.362;2023-12-22T06:02:20;7.20;76.70
5605;DHT22;9297;47.258;11.362;2023-12-22T06:04:48;7.30;74.00
5605;DHT22;9297;47.258;11.362;2023-12-22T06:07:15;7.20;76.30
5605;DHT22;9297;47.258;11.362;2023-12-22T06:09:42;7.20;75.40
5605;DHT22;9297;47.258;11.362;2023-12-22T06:12:10;7.20;73.70
5605;DHT22;9297;47.258;11.362;2023-12-22T06:14:39;8.40;99.90
5605;DHT22;9297;47.258;11.362;2023-12-22T06:17:06;8.70;80.90
5605;DHT22;9297;47.258;11.362;2023-12-22T06:19:35;9.30;82.70
5605;DHT22;9297;47.258;11.362;2023-12-22T06:22:04;8.70;68.80
5605;DHT22;9297;47.258;11.362;2023-12-22T06:24:30;8.20;74.80
5605;DHT22;9297;47.258;11.362;2023-12-22T06:26:57;7.70;72.20
5605;DHT22;9297;47.258;11.362;2023-12-22T06:29:24;7.50;74.70
5605;DHT22;9297;47.258;11.362;2023-12-22T06:31:54;7.40;80.80
5605;DHT22;9297;47.258;11.362;2023-12-22T06:34:21;7.30;78.80
5605;DHT22;9297;47.258;11.362;2023-12-22T06:36:48;7.30;76.30
5605;DHT22;9297;47.258;11.362;2023-12-22T06:39:16;7.20;76.40
5605;DHT22;9297;47.258;11.362;2023-12-22T06:41:43;7.10;80.90
5605;DHT22;9297;47.258;11.362;2023-12-22T06:44:10;7.10;81.70
5605;DHT22;9297;47.258;11.362;2023-12-22T06:46:37;7.00;80.10
5605;DHT22;9297;47.258;11.362;2023-12-22T06:49:04;6.90;81.10
5605;DHT22;9297;47.258;11.362;2023-12-22T06:51:33;6.90;82.70
5605;DHT22;9297;47.258;11.362;2023-12-22T06:54:00;6.80;84.10
5605;DHT22;9297;47.258;11.362;2023-12-22T06:56:31;6.80;83.70
5605;DHT22;9297;47.258;11.362;2023-12-22T06:58:59;6.70;85.70
5605;DHT22;9297;47.258;11.362;2023-12-22T07:01:29;6.60;87.30
5605;DHT22;9297;47.258;11.362;2023-12-22T07:03:57;6.50;90.10
5605;DHT22;9297;47.258;11.362;2023-12-22T07:06:25;6.50;89.00
5605;DHT22;9297;47.258;11.362;2023-12-22T07:08:57;6.50;87.90
5605;DHT22;9297;47.258;11.362;2023-12-22T07:11:24;6.50;89.10
5605;DHT22;9297;47.258;11.362;2023-12-22T07:14:04;6.50;88.90
5605;DHT22;9297;47.258;11.362;2023-12-22T07:16:32;6.40;91.70
5605;DHT22;9297;47.258;11.362;2023-12-22T07:18:59;6.50;87.90
5605;DHT22;9297;47.258;11.362;2023-12-22T07:21:26;6.60;84.10
5605;DHT22;9297;47.258;11.362;2023-12-22T07:23:53;6.50;87.30
5605;DHT22;9297;47.258;11.362;2023-12-22T07:26:20;6.70;82.20
5605;DHT22;9297;47.258;11.362;2023-12-22T07:28:47;6.70;80.70
5605;DHT22;9297;47.258;11.362;2023-12-22T07:31:19;6.80;84.20
5605;DHT22;9297;47.258;11.362;2023-12-22T07:33:46;6.70;87.00
5605;DHT22;9297;47.258;11.362;2023-12-22T07:36:15;6.70;85.20
5605;DHT22;9297;47.258;11.362;2023-12-22T07:38:42;6.70;86.00
5605;DHT22;9297;47.258;11.362;2023-12-22T07:41:09;6.70;81.60
5605;DHT22;9297;47.258;11.362;2023-12-22T07:43:38;6.70;81.40
5605;DHT22;9297;47.258;11.362;2023-12-22T07:46:05;6.70;84.50
5605;DHT22;9297;47.258;11.362;2023-12-22T07:48:34;6.50;86.80
5605;DHT22;9297;47.258;11.362;2023-12-22T07:51:01;6.40;89.60
5605;DHT22;9297;47.258;11.362;2023-12-22T07:53:28;6.40;90.70
5605;DHT22;9297;47.258;11.362;2023-12-22T07:55:55;6.30;89.00
5605;DHT22;9297;47.258;11.362;2023-12-22T07:58:21;6.30;92.40
5605;DHT22;9297;47.258;11.362;2023-12-22T08:00:48;6.30;91.20
5605;DHT22;9297;47.258;11.362;2023-12-22T08:03:15;6.30;91.30
5605;DHT22;9297;47.258;11.362;2023-12-22T08:05:44;6.50;85.10
5605;DHT22;9297;47.258;11.362;2023-12-22T08:08:11;6.40;91.80
5605;DHT22;9297;47.258;11.362;2023-12-22T08:10:38;6.50;92.80
5605;DHT22;9297;47.258;11.362;2023-12-22T08:13:05;6.50;85.60
5605;DHT22;9297;47.258;11.362;2023-12-22T08:15:31;6.50;90.20
5605;DHT22;9297;47.258;11.362;2023-12-22T08:18:03;6.50;90.60
5605;DHT22;9297;47.258;11.362;2023-12-22T08:20:30;6.50;88.10
5605;DHT22;9297;47.258;11.362;2023-12-22T08:23:05;6.60;86.70
5605;DHT22;9297;47.258;11.362;2023-12-22T08:25:37;6.50;86.70
5605;DHT22;9297;47.258;11.362;2023-12-22T08:28:05;6.50;89.00
5605;DHT22;9297;47.258;11.362;2023-12-22T08:30:32;6.50;87.30
5605;DHT22;9297;47.258;11.362;2023-12-22T08:32:59;6.50;89.00
5605;DHT22;9297;47.258;11.362;2023-12-22T08:35:26;6.60;87.30
5605;DHT22;9297;47.258;11.362;2023-12-22T08:37:53;6.60;87.30
5605;DHT22;9297;47.258;11.362;2023-12-22T08:40:21;6.50;90.70
5605;DHT22;9297;47.258;11.362;2023-12-22T08:42:48;6.60;87.10
5605;DHT22;9297;47.258;11.362;2023-12-22T08:45:16;6.60;88.90
5605;DHT22;9297;47.258;11.362;2023-12-22T08:47:43;6.60;87.30
5605;DHT22;9297;47.258;11.362;2023-12-22T08:50:10;6.70;88.80
5605;DHT22;9297;47.258;11.362;2023-12-22T08:52:36;6.60;88.00
5605;DHT22;9297;47.258;11.362;2023-12-22T08:55:12;6.60;86.20
5605;DHT22;9297;47.258;11.362;2023-12-22T08:57:41;6.60;88.80
5605;DHT22;9297;47.258;11.362;2023-12-22T09:00:22;6.60;87.80
5605;DHT22;9297;47.258;11.362;2023-12-22T09:02:49;6.60;88.00
5605;DHT22;9297;47.258;11.362;2023-12-22T09:05:16;6.60;87.70
5605;DHT22;9297;47.258;11.362;2023-12-22T09:07:43;6.60;89.80
5605;DHT22;9297;47.258;11.362;2023-12-22T09:10:10;6.60;89.40
5605;DHT22;9297;47.258;11.362;2023-12-22T09:12:37;6.60;87.90
5605;DHT22;9297;47.258;11.362;2023-12-22T09:15:06;6.80;88.20
5605;DHT22;9297;47.258;11.362;2023-12-22T09:17:33;6.70;87.80
5605;DHT22;9297;47.258;11.362;2023-12-22T09:20:01;6.80;85.90
5605;DHT22;9297;47.258;11.362;2023-12-22T09:22:28;6.80;88.30
5605;DHT22;9297;47.258;11.362;2023-12-22T09:24:55;6.80;85.00
5605;DHT22;9297;47.258;11.362;2023-12-22T09:27:22;6.90;84.40
5605;DHT22;9297;47.258;11.362;2023-12-22T09:29:49;6.90;82.10
5605;DHT22;9297;47.258;11.362;2023-12-22T09:32:17;6.90;83.80
5605;DHT22;9297;47.258;11.362;2023-12-22T09:34:44;6.90;84.20
5605;DHT22;9297;47.258;11.362;2023-12-22T09:37:11;6.90;82.80
5605;DHT22;9297;47.258;11.362;2023-12-22T09:39:38;7.00;81.30
5605;DHT22;9297;47.258;11.362;2023-12-22T09:42:06;6.90;81.40
5605;DHT22;9297;47.258;11.362;2023-12-22T09:44:35;7.00;78.00
5605;DHT22;9297;47.258;11.362;2023-12-22T09:47:04;7.10;78.80
5605;DHT22;9297;47.258;11.362;2023-12-22T09:49:34;7.00;80.20
5605;DHT22;9297;47.258;11.362;2023-12-22T09:52:02;7.00;81.70
5605;DHT22;9297;47.258;11.362;2023-12-22T09:54:30;6.90;83.00
5605;DHT22;9297;47.258;11.362;2023-12-22T09:56:57;7.00;82.40
5605;DHT22;9297;47.258;11.362;2023-12-22T09:59:31;7.00;83.30
5605;DHT22;9297;47.258;11.362;2023-12-22T10:02:00;7.00;83.50
5605;DHT22;9297;47.258;11.362;2023-12-22T10:04:27;7.00;85.20
5605;DHT22;9297;47.258;11.362;2023-12-22T10:06:58;7.00;85.40
5605;DHT22;9297;47.258;11.362;2023-12-22T10:09:28;6.90;84.70
5605;DHT22;9297;47.258;11.362;2023-12-22T10:11:56;7.00;85.60
5605;DHT22;9297;47.258;11.362;2023-12-22T10:14:23;6.90;82.80
5605;DHT22;9297;47.258;11.362;2023-12-22T10:16:51;6.90;84.30
5605;DHT22;9297;47.258;11.362;2023-12-22T10:19:19;6.80;84.60
5605;DHT22;9297;47.258;11.362;2023-12-22T10:21:46;6.80;85.40
5605;DHT22;9297;47.258;11.362;2023-12-22T10:24:39;6.90;86.50
5605;DHT22;9297;47.258;11.362;2023-12-22T10:27:06;6.80;87.00
5605;DHT22;9297;47.258;11.362;2023-12-22T10:29:34;6.80;86.90
5605;DHT22;9297;47.258;11.362;2023-12-22T10:32:01;6.90;86.10
5605;DHT22;9297;47.258;11.362;2023-12-22T10:34:30;6.90;88.10
5605;DHT22;9297;47.258;11.362;2023-12-22T10:36:59;6.90;85.80
5605;DHT22;9297;47.258;11.362;2023-12-22T10:39:27;6.90;86.10
5605;DHT22;9297;47.258;11.362;2023-12-22T10:41:56;6.90;86.20
5605;DHT22;9297;47.258;11.362;2023-12-22T10:44:24;6.90;86.60
5605;DHT22;9297;47.258;11.362;2023-12-22T10:46:52;6.90;87.20
5605;DHT22;9297;47.258;11.362;2023-12-22T10:49:20;6.90;85.00
5605;DHT22;9297;47.258;11.362;2023-12-22T10:51:47;6.90;85.30
5605;DHT22;9297;47.258;11.362;2023-12-22T10:54:15;6.90;87.00
5605;DHT22;9297;47.258;11.362;2023-12-22T10:56:43;6.90;86.80
5605;DHT22;9297;47.258;11.362;2023-12-22T10:59:12;6.90;86.40
5605;DHT22;9297;47.258;11.362;2023-12-22T11:01:41;6.90;85.80
5605;DHT22;9297;47.258;11.362;2023-12-22T11:04:12;6.90;87.40
5605;DHT22;9297;47.258;11.362;2023-12-22T11:06:47;6.90;89.10
5605;DHT22;9297;47.258;11.362;2023-12-22T11:09:17;6.80;88.50
5605;DHT22;9297;47.258;11.362;2023-12-22T11:11:48;6.80;89.50
5605;DHT22;9297;47.258;11.362;2023-12-22T11:14:19;6.70;88.30
5605;DHT22;9297;47.258;11.362;2023-12-22T11:16:47;6.70;89.00
5605;DHT22;9297;47.258;11.362;2023-12-22T11:19:18;6.70;89.90
5605;DHT22;9297;47.258;11.362;2023-12-22T11:21:47;6.70;91.10
5605;DHT22;9297;47.258;11.362;2023-12-22T11:24:18;6.60;92.70
5605;DHT22;9297;47.258;11.362;2023-12-22T11:26:47;6.60;91.40
5605;DHT22;9297;47.258;11.362;2023-12-22T11:29:19;6.60;91.80
5605;DHT22;9297;47.258;11.362;2023-12-22T11:31:47;6.60;93.10
5605;DHT22;9297;47.258;11.362;2023-12-22T11:34:17;6.50;94.30
5605;DHT22;9297;47.258;11.362;2023-12-22T11:36:46;6.50;93.90
5605;DHT22;9297;47.258;11.362;2023-12-22T11:39:14;6.50;94.10
5605;DHT22;9297;47.258;11.362;2023-12-22T11:41:41;6.60;92.30
5605;DHT22;9297;47.258;11.362;2023-12-22T11:44:09;6.50;93.60
5605;DHT22;9297;47.258;11.362;2023-12-22T11:46:38;6.60;93.70
5605;DHT22;9297;47.258;11.362;2023-12-22T11:49:06;6.50;91.10
5605;DHT22;9297;47.258;11.362;2023-12-22T11:51:33;6.50;93.40
5605;DHT22;9297;47.258;11.362;2023-12-22T11:54:00;6.60;92.20
5605;DHT22;9297;47.258;11.362;2023-12-22T11:56:29;6.50;95.70
5605;DHT22;9297;47.258;11.362;2023-12-22T11:58:56;6.50;95.10
5605;DHT22;9297;47.258;11.362;2023-12-22T12:01:24;6.50;93.80
5605;DHT22;9297;47.258;11.362;2023-12-22T12:03:54;6.50;93.80
5605;DHT22;9297;47.258;11.362;2023-12-22T12:06:30;6.50;95.00
5605;DHT22;9297;47.258;11.362;2023-12-22T12:08:58;6.60;94.50
5605;DHT22;9297;47.258;11.362;2023-12-22T12:14:40;6.50;93.90
5605;DHT22;9297;47.258;11.362;2023-12-22T12:17:09;6.40;94.10
5605;DHT22;9297;47.258;11.362;2023-12-22T12:19:39;6.50;94.80
5605;DHT22;9297;47.258;11.362;2023-12-22T12:22:07;6.50;96.40
5605;DHT22;9297;47.258;11.362;2023-12-22T12:24:36;6.50;94.30
5605;DHT22;9297;47.258;11.362;2023-12-22T12:27:03;6.50;98.80
5605;DHT22;9297;47.258;11.362;2023-12-22T12:29:32;6.50;97.50
5605;DHT22;9297;47.258;11.362;2023-12-22T12:32:03;6.40;97.90
5605;DHT22;9297;47.258;11.362;2023-12-22T12:34:31;6.50;98.60
5605;DHT22;9297;47.258;11.362;2023-12-22T12:37:00;6.40;99.90
5605;DHT22;9297;47.258;11.362;2023-12-22T12:39:30;6.40;97.00
5605;DHT22;9297;47.258;11.362;2023-12-22T12:41:59;6.50;99.90
5605;DHT22;9297;47.258;11.362;2023-12-22T12:44:27;6.50;99.70
5605;DHT22;9297;47.258;11.362;2023-12-22T12:46:54;6.50;99.30
5605;DHT22;9297;47.258;11.362;2023-12-22T12:49:21;6.50;96.60
5605;DHT22;9297;47.258;11.362;2023-12-22T12:51:48;6.50;94.50
5605;DHT22;9297;47.258;11.362;2023-12-22T12:54:17;6.50;96.10
5605;DHT22;9297;47.258;11.362;2023-12-22T12:56:45;6.50;97.30
5605;DHT22;9297;47.258;11.362;2023-12-22T12:59:13;6.50;99.90
5605;DHT22;9297;47.258;11.362;2023-12-22T13:01:44;6.50;98.70
5605;DHT22;9297;47.258;11.362;2023-12-22T13:04:12;6.50;98.10
5605;DHT22;9297;47.258;11.362;2023-12-22T13:06:44;6.50;99.90
5605;DHT22;9297;47.258;11.362;2023-12-22T13:09:12;6.50;98.50
5605;DHT22;9297;47.258;11.362;2023-12-22T13:11:43;6.50;99.90
5605;DHT22;9297;47.258;11.362;2023-12-22T13:14:11;6.40;99.00
5605;DHT22;9297;47.258;11.362;2023-12-22T13:16:39;6.40;96.60
5605;DHT22;9297;47.258;11.362;2023-12-22T13:19:06;6.40;99.90
5605;DHT22;9297;47.258;11.362;2023-12-22T13:21:34;6.40;97.90
5605;DHT22;9297;47.258;11.362;2023-12-22T13:24:25;6.40;99.90
5605;DHT22;9297;47.258;11.362;2023-12-22T13:27:00;6.40;99.90
5605;DHT22;9297;47.258;11.362;2023-12-22T13:29:42;6.40;99.90
5605;DHT22;9297;47.258;11.362;2023-12-22T13:32:15;6.40;99.90
5605;DHT22;9297;47.258;11.362;2023-12-22T13:34:50;6.40;99.90
5605;DHT22;9297;47.258;11.362;2023-12-22T13:37:18;6.40;99.90
5605;DHT22;9297;47.258;11.362;2023-12-22T13:39:46;6.40;99.90
5605;DHT22;9297;47.258;11.362;2023-12-22T13:42:18;6.40;99.90
5605;DHT22;9297;47.258;11.362;2023-12-22T13:44:45;6.40;99.90
5605;DHT22;9297;47.258;11.362;2023-12-22T13:47:14;6.40;99.70
5605;DHT22;9297;47.258;11.362;2023-12-22T13:49:42;6.40;99.90
5605;DHT22;9297;47.258;11.362;2023-12-22T13:52:24;6.50;99.90
5605;DHT22;9297;47.258;11.362;2023-12-22T13:54:52;6.50;99.90
5605;DHT22;9297;47.258;11.362;2023-12-22T13:57:25;6.40;99.90
5605;DHT22;9297;47.258;11.362;2023-12-22T13:59:53;6.40;99.90
5605;DHT22;9297;47.258;11.362;2023-12-22T14:02:21;6.30;99.90
5605;DHT22;9297;47.258;11.362;2023-12-22T14:04:49;6.20;99.90
5605;DHT22;9297;47.258;11.362;2023-12-22T14:07:16;6.10;99.90
5605;DHT22;9297;47.258;11.362;2023-12-22T14:09:43;6.10;99.90
5605;DHT22;9297;47.258;11.362;2023-12-22T14:12:10;6.10;99.90
5605;DHT22;9297;47.258;11.362;2023-12-22T14:14:45;6.10;99.90
5605;DHT22;9297;47.258;11.362;2023-12-22T14:17:12;6.10;99.90
5605;DHT22;9297;47.258;11.362;2023-12-22T14:19:39;6.10;99.90
5605;DHT22;9297;47.258;11.362;2023-12-22T14:22:06;6.00;99.90
5605;DHT22;9297;47.258;11.362;2023-12-22T14:24:34;6.00;99.90
5605;DHT22;9297;47.258;11.362;2023-12-22T14:27:01;6.10;99.90
5605;DHT22;9297;47.258;11.362;2023-12-22T14:29:28;6.00;99.90
5605;DHT22;9297;47.258;11.362;2023-12-22T14:31:56;6.00;99.90
5605;DHT22;9297;47.258;11.362;2023-12-22T14:34:23;6.00;99.90
5605;DHT22;9297;47.258;11.362;2023-12-22T14:36:50;6.00;99.90
5605;DHT22;9297;47.258;11.362;2023-12-22T14:39:17;5.90;99.90
5605;DHT22;9297;47.258;11.362;2023-12-22T14:41:44;5.90;99.90
5605;DHT22;9297;47.258;11.362;2023-12-22T14:44:11;6.00;99.90
5605;DHT22;9297;47.258;11.362;2023-12-22T14:46:39;5.90;99.90
5605;DHT22;9297;47.258;11.362;2023-12-22T14:49:07;5.90;99.90
5605;DHT22;9297;47.258;11.362;2023-12-22T14:51:38;5.80;99.90
5605;DHT22;9297;47.258;11.362;2023-12-22T14:54:05;5.90;99.90
5605;DHT22;9297;47.258;11.362;2023-12-22T14:56:32;5.90;99.90
5605;DHT22;9297;47.258;11.362;2023-12-22T14:58:59;6.00;99.90
5605;DHT22;9297;47.258;11.362;2023-12-22T15:01:26;5.90;99.90
5605;DHT22;9297;47.258;11.362;2023-12-22T15:03:53;6.00;99.90
5605;DHT22;9297;47.258;11.362;2023-12-22T15:06:22;5.90;99.90
5605;DHT22;9297;47.258;11.362;2023-12-22T15:08:49;6.00;99.90
5605;DHT22;9297;47.258;11.362;2023-12-22T15:11:16;6.00;99.90
5605;DHT22;9297;47.258;11.362;2023-12-22T15:13:43;6.00;99.90
5605;DHT22;9297;47.258;11.362;2023-12-22T15:16:10;6.00;99.90
5605;DHT22;9297;47.258;11.362;2023-12-22T15:18:37;6.10;99.90
5605;DHT22;9297;47.258;11.362;2023-12-22T15:21:04;6.10;99.90
5605;DHT22;9297;47.258;11.362;2023-12-22T15:23:32;6.10;99.90
5605;DHT22;9297;47.258;11.362;2023-12-22T15:25:59;6.20;99.90
5605;DHT22;9297;47.258;11.362;2023-12-22T15:28:26;6.20;99.90
5605;DHT22;9297;47.258;11.362;2023-12-22T15:30:53;6.20;99.90
5605;DHT22;9297;47.258;11.362;2023-12-22T15:33:20;6.20;99.90
5605;DHT22;9297;47.258;11.362;2023-12-22T15:35:47;6.20;99.90
5605;DHT22;9297;47.258;11.362;2023-12-22T15:38:14;6.10;99.90
5605;DHT22;9297;47.258;11.362;2023-12-22T15:40:43;6.20;99.90
5605;DHT22;9297;47.258;11.362;2023-12-22T15:43:10;6.20;99.90
5605;DHT22;9297;47.258;11.362;2023-12-22T15:45:37;6.20;99.90
5605;DHT22;9297;47.258;11.362;2023-12-22T15:48:04;6.30;99.90
5605;DHT22;9297;47.258;11.362;2023-12-22T15:50:31;6.30;99.90
5605;DHT22;9297;47.258;11.362;2023-12-22T15:52:58;6.30;99.90
5605;DHT22;9297;47.258;11.362;2023-12-22T15:55:25;6.30;99.90
5605;DHT22;9297;47.258;11.362;2023-12-22T15:57:54;6.40;99.90
5605;DHT22;9297;47.258;11.362;2023-12-22T16:00:21;6.30;99.90
5605;DHT22;9297;47.258;11.362;2023-12-22T16:02:48;6.30;99.90
5605;DHT22;9297;47.258;11.362;2023-12-22T16:05:15;6.30;99.90
5605;DHT22;9297;47.258;11.362;2023-12-22T16:07:42;6.30;99.90
5605;DHT22;9297;47.258;11.362;2023-12-22T16:10:10;6.30;99.90